Time;durP1;ratioP1;P1;durP2;ratioP2;P2;SDS_P1;SDS_P2;PMS_P1;PMS_P2;Temp;Humidity;BMP_temperature;BMP_pressure;BME280_temperature;BME280_humidity;BME280_pressure;Samples;Min_cycle;Max_cycle;Signal;HPM_P1;HPM_P2
2021/12/19 00:10:33;;;;;;;10.82;6.65;;;5.50;96.70;;;;;;4952121;28;20043;-71
2021/12/19 00:13:01;;;;;;;8.52;5.65;;;5.40;96.70;;;;;;4969307;28;20145;-70
2021/12/19 00:15:29;;;;;;;13.32;5.50;;;5.40;96.70;;;;;;4958573;28;20125;-70
2021/12/19 00:17:58;;;;;;;9.90;5.40;;;5.40;96.70;;;;;;4970300;28;20049;-70
2021/12/19 00:20:26;;;;;;;9.00;5.10;;;5.30;96.70;;;;;;4972831;28;20053;-70
2021/12/19 00:23:14;;;;;;;8.10;4.82;;;5.30;96.70;;;;;;4973174;28;20046;-70
2021/12/19 00:25:44;;;;;;;7.60;4.88;;;5.20;96.70;;;;;;4970270;28;20039;-71
2021/12/19 00:28:12;;;;;;;9.75;5.80;;;5.10;96.70;;;;;;4956761;28;20132;-71
2021/12/19 00:30:41;;;;;;;9.85;5.35;;;5.10;96.70;;;;;;4974823;28;20068;-70
2021/12/19 00:33:09;;;;;;;10.18;6.03;;;5.10;96.70;;;;;;4977395;28;20420;-71
2021/12/19 00:35:37;;;;;;;8.23;5.43;;;4.90;96.70;;;;;;4976692;28;20046;-71
2021/12/19 00:38:06;;;;;;;10.00;5.20;;;4.90;96.70;;;;;;4973953;28;20054;-70
2021/12/19 00:40:36;;;;;;;10.25;5.10;;;4.90;96.70;;;;;;4952468;28;20488;-70
2021/12/19 00:43:10;;;;;;;9.63;5.35;;;4.90;96.70;;;;;;4973744;28;20047;-70
2021/12/19 00:45:40;;;;;;;8.20;4.78;;;4.90;96.70;;;;;;4955131;28;20363;-70
2021/12/19 00:48:10;;;;;;;9.07;4.35;;;4.90;96.70;;;;;;4954294;28;20122;-70
2021/12/19 00:50:38;;;;;;;8.73;5.22;;;5.00;96.70;;;;;;4957267;28;20511;-70
2021/12/19 00:53:06;;;;;;;8.52;4.10;;;5.00;96.70;;;;;;4954983;28;20058;-71
2021/12/19 00:55:35;;;;;;;7.30;4.38;;;5.00;96.70;;;;;;4955667;28;20046;-71
2021/12/19 00:58:05;;;;;;;9.07;5.22;;;5.00;96.70;;;;;;4950887;28;20046;-71
2021/12/19 01:00:35;;;;;;;9.90;5.10;;;5.00;96.70;;;;;;4957884;28;20047;-70
2021/12/19 01:03:04;;;;;;;9.15;4.97;;;5.00;96.70;;;;;;4952689;28;20053;-70
2021/12/19 01:05:35;;;;;;;9.23;5.80;;;5.00;96.70;;;;;;4951469;28;20062;-71
2021/12/19 01:08:05;;;;;;;9.30;5.95;;;5.00;96.70;;;;;;4954707;28;20055;-71
2021/12/19 01:10:34;;;;;;;9.93;5.93;;;5.00;96.70;;;;;;4949253;28;20043;-70
2021/12/19 01:13:02;;;;;;;10.93;6.18;;;4.80;96.70;;;;;;4954489;28;20062;-70
2021/12/19 01:15:32;;;;;;;8.68;5.93;;;4.70;96.70;;;;;;4955169;28;20066;-71
2021/12/19 01:18:01;;;;;;;9.90;6.43;;;4.70;96.70;;;;;;4952935;28;20051;-70
2021/12/19 01:20:30;;;;;;;11.63;5.70;;;4.70;96.70;;;;;;4955309;28;20047;-70
2021/12/19 01:23:00;;;;;;;10.80;6.05;;;4.70;96.70;;;;;;4962756;28;20647;-70
2021/12/19 01:25:28;;;;;;;10.02;6.15;;;4.70;96.70;;;;;;4955809;28;20094;-71
2021/12/19 01:27:56;;;;;;;7.47;5.43;;;4.60;96.70;;;;;;4953067;28;20406;-70
2021/12/19 01:30:25;;;;;;;8.88;4.97;;;4.50;96.70;;;;;;4947834;28;20042;-70
2021/12/19 01:32:55;;;;;;;8.73;4.45;;;4.50;96.70;;;;;;4949942;28;20054;-70
2021/12/19 01:35:24;;;;;;;8.50;4.70;;;4.50;96.70;;;;;;4955359;28;20388;-70
2021/12/19 01:37:53;;;;;;;7.05;4.30;;;4.50;96.70;;;;;;4955288;28;20039;-70
2021/12/19 01:40:22;;;;;;;8.25;4.65;;;4.50;96.70;;;;;;4950200;28;20501;-70
2021/12/19 01:42:52;;;;;;;7.18;4.78;;;4.50;96.70;;;;;;4955932;28;20054;-70
2021/12/19 01:45:26;;;;;;;8.02;4.93;;;4.70;96.70;;;;;;4966867;28;20505;-70
2021/12/19 01:47:57;;;;;;;7.15;4.57;;;4.70;96.70;;;;;;4958342;28;20043;-70
2021/12/19 01:50:26;;;;;;;7.28;4.40;;;4.70;96.70;;;;;;4974039;28;20034;-70
2021/12/19 01:52:54;;;;;;;10.07;5.38;;;4.70;96.70;;;;;;4976569;28;20050;-70
2021/12/19 01:55:22;;;;;;;9.32;5.30;;;4.60;96.70;;;;;;4972807;28;20062;-70
2021/12/19 01:57:51;;;;;;;9.85;5.53;;;4.50;96.70;;;;;;4971039;28;20283;-71
2021/12/19 02:00:22;;;;;;;9.98;5.68;;;4.60;96.70;;;;;;4958118;28;20911;-71
2021/12/19 02:02:50;;;;;;;9.10;5.97;;;4.60;96.70;;;;;;4971831;28;20477;-70
2021/12/19 02:05:22;;;;;;;12.65;6.50;;;4.70;96.70;;;;;;4954150;28;20474;-70
2021/12/19 02:07:51;;;;;;;9.32;6.20;;;4.70;96.70;;;;;;4971024;28;20405;-70
2021/12/19 02:10:21;;;;;;;8.57;5.80;;;4.70;96.70;;;;;;4974254;28;20530;-71
2021/12/19 02:12:50;;;;;;;9.02;5.57;;;4.70;96.70;;;;;;4976562;28;20109;-70
2021/12/19 02:15:21;;;;;;;11.02;5.88;;;4.80;96.70;;;;;;4976478;28;20513;-70
2021/12/19 02:17:50;;;;;;;10.95;5.90;;;4.90;96.70;;;;;;4956338;28;20046;-70
2021/12/19 02:20:21;;;;;;;10.02;6.97;;;4.80;96.70;;;;;;4973863;28;20050;-70
2021/12/19 02:22:50;;;;;;;8.40;5.70;;;4.70;96.70;;;;;;4972459;28;20043;-70
2021/12/19 02:25:18;;;;;;;10.13;6.15;;;4.60;96.70;;;;;;4958543;28;20034;-71
2021/12/19 02:27:46;;;;;;;8.48;5.40;;;4.60;96.70;;;;;;4969991;28;20057;-70
2021/12/19 02:30:14;;;;;;;12.63;6.43;;;4.60;96.70;;;;;;4956750;28;20041;-70
2021/12/19 02:32:42;;;;;;;11.63;6.28;;;4.60;96.70;;;;;;4975977;28;20058;-70
2021/12/19 02:35:16;;;;;;;9.48;6.30;;;4.50;96.70;;;;;;4954737;28;20629;-71
2021/12/19 02:48:30;;;;;;;9.02;5.95;;;4.30;96.70;;;;;;4951398;28;20046;-71
2021/12/19 02:50:58;;;;;;;9.25;5.70;;;4.30;96.70;;;;;;4951529;28;20125;-71
2021/12/19 02:53:30;;;;;;;9.07;5.78;;;4.40;96.70;;;;;;4949892;28;20051;-71
2021/12/19 02:55:59;;;;;;;8.73;5.63;;;4.30;96.70;;;;;;4949527;28;20114;-71
2021/12/19 02:58:28;;;;;;;8.20;5.18;;;4.30;96.70;;;;;;4954920;28;20057;-71
2021/12/19 03:00:58;;;;;;;11.13;6.28;;;4.20;96.70;;;;;;4951278;28;20046;-70
2021/12/19 03:03:26;;;;;;;8.60;5.22;;;4.20;96.70;;;;;;4954512;28;20559;-71
2021/12/19 03:05:54;;;;;;;9.32;5.57;;;4.20;96.70;;;;;;4950264;28;20425;-71
2021/12/19 03:08:23;;;;;;;9.38;5.13;;;4.20;96.70;;;;;;4957705;28;20043;-71
2021/12/19 03:18:46;;;;;;;10.68;5.72;;;4.10;96.70;;;;;;4957194;28;20137;-70
2021/12/19 03:21:17;;;;;;;9.82;5.45;;;3.90;96.70;;;;;;4948117;28;20076;-71
2021/12/19 03:23:45;;;;;;;11.32;5.88;;;4.00;96.70;;;;;;4952915;28;20536;-70
2021/12/19 03:26:15;;;;;;;9.65;5.32;;;4.10;96.70;;;;;;4952503;28;20034;-70
2021/12/19 03:28:43;;;;;;;9.27;5.15;;;3.90;96.70;;;;;;4952064;28;20724;-71
2021/12/19 03:31:13;;;;;;;8.23;5.25;;;3.90;96.70;;;;;;4950899;28;20058;-70
2021/12/19 03:33:41;;;;;;;12.38;5.85;;;3.90;96.70;;;;;;4947719;28;20576;-71
2021/12/19 03:36:14;;;;;;;8.35;5.47;;;3.80;96.70;;;;;;4950064;28;20035;-70
2021/12/19 03:38:44;;;;;;;9.38;5.18;;;3.80;96.70;;;;;;4950321;28;20182;-70
2021/12/19 03:43:42;;;;;;;7.90;5.32;;;3.80;96.70;;;;;;4954898;28;20058;-70
2021/12/19 03:46:11;;;;;;;9.60;5.57;;;3.80;96.70;;;;;;4971801;28;20066;-70
2021/12/19 03:48:39;;;;;;;10.88;5.82;;;3.90;96.70;;;;;;4972891;28;20515;-71
2021/12/19 03:51:07;;;;;;;8.05;5.38;;;3.80;96.70;;;;;;4969970;28;20097;-70
2021/12/19 03:53:36;;;;;;;9.82;5.03;;;3.70;96.70;;;;;;4972339;28;20046;-70
2021/12/19 03:56:04;;;;;;;8.10;4.85;;;3.70;96.70;;;;;;4970448;28;20039;-70
2021/12/19 03:58:33;;;;;;;9.13;4.97;;;3.70;96.70;;;;;;4975675;28;20049;-70
2021/12/19 04:01:05;;;;;;;7.18;4.50;;;3.70;96.70;;;;;;4960394;28;20500;-71
2021/12/19 04:03:34;;;;;;;8.32;5.05;;;3.80;96.70;;;;;;4978264;28;20038;-71
2021/12/19 04:06:03;;;;;;;7.53;5.15;;;3.70;96.70;;;;;;4945312;28;20050;-71
2021/12/19 04:08:31;;;;;;;7.82;4.53;;;3.80;96.70;;;;;;4935295;28;20043;-70
2021/12/19 04:10:59;;;;;;;6.82;5.03;;;3.80;96.70;;;;;;4954539;28;20039;-70
2021/12/19 04:13:27;;;;;;;9.80;5.03;;;3.80;96.70;;;;;;4973905;28;20042;-70
2021/12/19 04:15:56;;;;;;;7.03;4.95;;;3.70;96.70;;;;;;4957173;28;20050;-70
2021/12/19 04:18:24;;;;;;;6.35;4.75;;;3.60;96.70;;;;;;4968754;28;20050;-70
2021/12/19 04:20:52;;;;;;;7.28;4.68;;;3.60;96.70;;;;;;4971256;28;20042;-71
2021/12/19 04:23:21;;;;;;;7.07;4.65;;;3.60;96.70;;;;;;4950295;28;20038;-71
2021/12/19 04:25:50;;;;;;;9.23;4.90;;;3.70;96.70;;;;;;4945465;28;20409;-70
2021/12/19 04:28:18;;;;;;;7.75;4.88;;;3.70;96.70;;;;;;4972579;28;20045;-70
2021/12/19 04:30:46;;;;;;;7.68;4.90;;;3.70;96.70;;;;;;4968700;28;20050;-70
2021/12/19 04:33:17;;;;;;;9.88;5.07;;;3.70;96.70;;;;;;4956404;28;20042;-70
2021/12/19 04:35:45;;;;;;;7.88;4.80;;;3.80;96.70;;;;;;4977356;28;20073;-70
2021/12/19 05:16:16;;;;;;;8.25;4.90;;;3.50;96.70;;;;;;4968628;28;20567;-71
2021/12/19 05:18:46;;;;;;;7.65;4.70;;;3.60;96.70;;;;;;4971918;28;20449;-70
2021/12/19 05:21:19;;;;;;;5.80;4.38;;;3.50;96.70;;;;;;4973253;28;20060;-71
2021/12/19 05:26:26;;;;;;;7.30;4.53;;;3.40;96.70;;;;;;4957288;28;20121;-70
2021/12/19 05:28:54;;;;;;;7.50;4.82;;;3.50;96.70;;;;;;4969880;28;20130;-70
2021/12/19 05:31:22;;;;;;;6.38;4.25;;;3.40;96.70;;;;;;4959866;28;20065;-70
2021/12/19 05:33:50;;;;;;;10.32;4.57;;;3.30;96.70;;;;;;4960560;28;20038;-71
2021/12/19 05:47:08;;;;;;;6.07;3.88;;;3.10;96.70;;;;;;4959174;28;20138;-70
2021/12/19 05:49:36;;;;;;;8.43;5.18;;;3.20;96.70;;;;;;4969544;28;20342;-70
2021/12/19 05:52:06;;;;;;;6.22;4.68;;;3.30;96.70;;;;;;4955774;28;20505;-70
2021/12/19 05:54:34;;;;;;;9.32;5.57;;;3.30;96.70;;;;;;4957998;28;20054;-70
2021/12/19 05:57:02;;;;;;;8.75;4.47;;;3.30;96.70;;;;;;4955090;28;20459;-71
2021/12/19 05:59:30;;;;;;;8.35;4.85;;;3.20;96.70;;;;;;4957845;28;20039;-70
2021/12/19 06:01:58;;;;;;;7.82;4.57;;;3.10;96.70;;;;;;4976621;28;20476;-70
2021/12/19 06:04:26;;;;;;;7.82;4.95;;;3.10;96.70;;;;;;4974974;28;20454;-70
2021/12/19 06:06:54;;;;;;;7.07;4.47;;;3.20;96.70;;;;;;4947423;28;20047;-70
2021/12/19 06:09:23;;;;;;;6.88;4.13;;;3.30;96.70;;;;;;4974103;28;20051;-70
2021/12/19 06:11:51;;;;;;;12.20;4.63;;;3.30;96.70;;;;;;4954738;28;20054;-70
2021/12/19 06:14:20;;;;;;;6.80;4.45;;;3.20;96.70;;;;;;4954797;28;20053;-70
2021/12/19 06:16:49;;;;;;;8.00;4.15;;;3.20;96.70;;;;;;4960165;28;20045;-70
2021/12/19 06:19:17;;;;;;;6.53;4.30;;;3.30;96.70;;;;;;4973208;28;20042;-70
2021/12/19 06:21:45;;;;;;;6.57;4.25;;;3.10;96.70;;;;;;4974344;28;20046;-71
2021/12/19 06:24:13;;;;;;;6.28;3.92;;;3.10;96.70;;;;;;4976146;28;20050;-70
2021/12/19 06:26:42;;;;;;;5.82;3.85;;;3.10;96.70;;;;;;4953620;28;20039;-70
2021/12/19 06:29:10;;;;;;;5.47;4.00;;;3.10;96.70;;;;;;4956193;28;20229;-70
2021/12/19 06:31:38;;;;;;;5.88;4.22;;;3.10;96.70;;;;;;4974885;28;20529;-70
2021/12/19 06:34:06;;;;;;;7.18;4.00;;;3.20;96.70;;;;;;4977696;28;20062;-70
2021/12/19 06:36:34;;;;;;;6.95;4.05;;;3.20;96.70;;;;;;4973362;28;20035;-70
2021/12/19 06:39:03;;;;;;;6.95;3.92;;;3.20;96.70;;;;;;4968042;28;20096;-71
2021/12/19 06:41:31;;;;;;;7.32;4.57;;;3.20;96.70;;;;;;4957554;28;20412;-70
2021/12/19 06:44:00;;;;;;;11.25;4.75;;;3.00;96.70;;;;;;4973428;28;20061;-70
2021/12/19 06:46:29;;;;;;;10.63;4.57;;;2.90;96.70;;;;;;4970603;28;20117;-70
2021/12/19 06:48:57;;;;;;;8.98;4.80;;;3.00;96.70;;;;;;4976691;28;20901;-70
2021/12/19 06:51:26;;;;;;;9.57;4.53;;;3.10;96.70;;;;;;4956453;28;20299;-70
2021/12/19 06:53:54;;;;;;;8.05;5.63;;;3.20;96.70;;;;;;4973327;28;20089;-70
2021/12/19 06:56:22;;;;;;;7.78;4.90;;;3.20;96.70;;;;;;4972043;28;20041;-70
2021/12/19 06:58:50;;;;;;;7.75;4.78;;;3.20;96.70;;;;;;4969360;28;20117;-70
2021/12/19 07:01:20;;;;;;;8.57;4.90;;;3.30;96.70;;;;;;4952456;28;20046;-70
2021/12/19 07:03:48;;;;;;;7.75;5.20;;;3.30;96.70;;;;;;4967737;28;20408;-71
2021/12/19 07:06:18;;;;;;;9.68;5.45;;;3.30;96.70;;;;;;4972165;28;20146;-70
2021/12/19 07:08:46;;;;;;;8.40;5.25;;;3.20;96.70;;;;;;4940967;28;20138;-70
2021/12/19 07:11:14;;;;;;;6.53;4.45;;;3.20;96.70;;;;;;4970668;28;21016;-70
2021/12/19 07:13:42;;;;;;;7.05;4.63;;;3.20;96.70;;;;;;4971413;28;20050;-70
2021/12/19 07:16:10;;;;;;;8.98;4.70;;;3.10;96.70;;;;;;4954064;28;20042;-70
2021/12/19 07:18:40;;;;;;;8.65;4.35;;;3.10;96.70;;;;;;4971282;28;20039;-70
2021/12/19 07:21:08;;;;;;;7.57;3.97;;;3.30;96.70;;;;;;4955458;28;20050;-70
2021/12/19 07:23:37;;;;;;;7.75;4.00;;;3.40;96.70;;;;;;4974643;28;20034;-71
2021/12/19 07:26:05;;;;;;;6.18;4.03;;;3.30;96.70;;;;;;4976430;28;20038;-71
2021/12/19 07:28:33;;;;;;;8.68;4.43;;;3.20;96.70;;;;;;4974506;28;20457;-70
2021/12/19 07:31:02;;;;;;;7.47;4.25;;;3.20;96.70;;;;;;4957130;28;20113;-70
2021/12/19 07:33:30;;;;;;;9.35;4.60;;;3.20;96.70;;;;;;4959108;28;20393;-71
2021/12/19 07:36:01;;;;;;;7.18;4.35;;;3.30;96.70;;;;;;4971746;28;20351;-70
2021/12/19 07:38:34;;;;;;;12.32;5.32;;;3.30;96.70;;;;;;4971850;28;20045;-70
2021/12/19 07:41:03;;;;;;;7.68;5.25;;;3.40;96.70;;;;;;4973681;28;20050;-71
2021/12/19 07:43:31;;;;;;;6.40;4.45;;;3.40;96.70;;;;;;4974132;28;20045;-70
2021/12/19 07:45:59;;;;;;;7.10;4.70;;;3.40;96.70;;;;;;4955602;28;20433;-71
2021/12/19 07:48:27;;;;;;;5.90;4.53;;;3.30;96.70;;;;;;4958409;28;20119;-71
2021/12/19 07:50:55;;;;;;;9.77;5.15;;;3.30;96.70;;;;;;4956123;28;20054;-71
2021/12/19 07:53:25;;;;;;;11.73;6.03;;;3.40;96.70;;;;;;4957153;28;20035;-71
2021/12/19 07:55:53;;;;;;;7.15;5.00;;;3.50;96.70;;;;;;4975421;28;20493;-70
2021/12/19 07:58:21;;;;;;;7.50;5.10;;;3.50;96.70;;;;;;4972618;28;20606;-70
2021/12/19 08:00:49;;;;;;;10.38;5.97;;;3.60;96.70;;;;;;4968969;28;20039;-70
2021/12/19 08:03:17;;;;;;;10.15;6.40;;;3.60;96.70;;;;;;4942668;28;20527;-71
2021/12/19 08:05:46;;;;;;;9.93;6.25;;;3.70;96.70;;;;;;4950616;28;20039;-71
2021/12/19 08:08:17;;;;;;;11.68;6.88;;;3.70;96.70;;;;;;4969822;28;20035;-70
2021/12/19 08:13:15;;;;;;;8.23;5.22;;;3.80;96.70;;;;;;4972560;28;20054;-71
2021/12/19 08:15:43;;;;;;;8.68;4.80;;;3.80;96.70;;;;;;4975988;28;20058;-71
2021/12/19 08:18:11;;;;;;;7.03;4.72;;;3.80;96.70;;;;;;4974385;28;20457;-71
2021/12/19 08:20:40;;;;;;;7.43;4.90;;;3.60;96.70;;;;;;4971591;28;20041;-70
2021/12/19 08:23:07;;;;;;;7.97;4.50;;;3.60;96.70;;;;;;4974195;28;20035;-71
2021/12/19 08:25:36;;;;;;;9.70;5.72;;;3.80;96.70;;;;;;4955781;28;20049;-71
2021/12/19 08:28:05;;;;;;;7.88;4.93;;;3.90;96.70;;;;;;4968613;28;20038;-71
2021/12/19 08:30:33;;;;;;;7.38;4.93;;;4.00;96.70;;;;;;4970123;28;20042;-70
2021/12/19 08:33:01;;;;;;;8.60;5.22;;;3.90;96.70;;;;;;4959595;28;20366;-71
2021/12/19 08:35:30;;;;;;;8.95;5.20;;;4.00;96.70;;;;;;4970089;28;20548;-71
2021/12/19 08:37:58;;;;;;;6.22;4.75;;;4.10;96.70;;;;;;4945394;28;20563;-70
2021/12/19 08:40:27;;;;;;;8.85;6.05;;;4.20;96.70;;;;;;4971971;28;20487;-70
2021/12/19 08:42:57;;;;;;;7.47;5.28;;;4.20;96.70;;;;;;4971251;28;20046;-70
2021/12/19 08:45:26;;;;;;;8.43;5.22;;;4.20;96.70;;;;;;4977137;28;20054;-70
2021/12/19 08:47:55;;;;;;;7.95;5.00;;;4.30;96.70;;;;;;4973954;28;20591;-70
2021/12/19 08:50:23;;;;;;;8.48;4.78;;;4.40;96.70;;;;;;4968372;28;20062;-71
2021/12/19 08:52:52;;;;;;;7.60;4.53;;;4.40;96.70;;;;;;4971321;28;20047;-70
2021/12/19 08:55:20;;;;;;;7.70;5.22;;;4.60;96.70;;;;;;4973484;28;20042;-71
2021/12/19 08:58:12;;;;;;;8.45;4.93;;;4.50;96.70;;;;;;4951352;28;20042;-70
2021/12/19 09:00:44;;;;;;;8.38;5.35;;;4.60;96.70;;;;;;4891452;29;20135;-70
2021/12/19 09:03:15;;;;;;;9.23;5.45;;;4.90;96.70;;;;;;4900380;29;20080;-70
2021/12/19 09:05:43;;;;;;;7.82;5.10;;;5.00;96.70;;;;;;4881463;29;20185;-70
2021/12/19 09:08:11;;;;;;;10.40;5.50;;;5.00;96.70;;;;;;4877909;29;20055;-70
2021/12/19 09:10:40;;;;;;;9.98;6.00;;;5.10;96.70;;;;;;4876179;29;20060;-71
2021/12/19 09:13:08;;;;;;;9.45;5.75;;;5.20;96.70;;;;;;4873765;29;20188;-70
2021/12/19 09:15:36;;;;;;;8.82;5.47;;;5.30;96.70;;;;;;4865151;29;20274;-70
2021/12/19 09:18:06;;;;;;;11.15;6.10;;;5.40;96.70;;;;;;4861737;29;20163;-70
2021/12/19 09:20:40;;;;;;;9.30;6.00;;;5.40;96.70;;;;;;4877467;29;20073;-70
2021/12/19 09:23:08;;;;;;;11.70;7.72;;;5.50;96.70;;;;;;4873011;29;20137;-71
2021/12/19 09:25:37;;;;;;;12.02;6.35;;;5.60;96.70;;;;;;4933878;28;20067;-70
2021/12/19 09:28:08;;;;;;;10.57;6.47;;;5.70;96.70;;;;;;4930410;28;20052;-71
2021/12/19 09:30:36;;;;;;;11.45;6.50;;;5.70;96.70;;;;;;4938689;28;20147;-70
2021/12/19 09:33:08;;;;;;;10.70;5.88;;;5.80;96.70;;;;;;4935983;28;20043;-71
2021/12/19 09:35:36;;;;;;;9.57;5.65;;;6.00;96.70;;;;;;4931148;28;20047;-71
2021/12/19 09:38:07;;;;;;;9.43;5.72;;;6.10;96.70;;;;;;4946008;28;20043;-70
2021/12/19 09:40:40;;;;;;;8.73;5.68;;;6.10;96.70;;;;;;4931311;28;20051;-71
2021/12/19 09:43:31;;;;;;;8.65;4.82;;;6.30;96.70;;;;;;4950546;28;20593;-71
2021/12/19 09:45:59;;;;;;;7.18;4.78;;;6.40;96.70;;;;;;4931131;28;20105;-70
2021/12/19 09:48:29;;;;;;;6.70;4.80;;;6.50;96.70;;;;;;4963657;28;20060;-71
2021/12/19 09:50:57;;;;;;;7.07;4.28;;;6.70;96.70;;;;;;4955404;28;20051;-75
2021/12/19 09:53:25;;;;;;;8.75;5.68;;;6.80;96.70;;;;;;4961869;28;20085;-72
2021/12/19 09:55:53;;;;;;;7.53;4.63;;;6.80;96.70;;;;;;4973257;28;20137;-71
2021/12/19 09:58:24;;;;;;;7.25;4.80;;;6.80;96.70;;;;;;4962685;28;20151;-72
2021/12/19 10:00:53;;;;;;;7.75;4.65;;;6.90;96.70;;;;;;4968716;28;20578;-72
2021/12/19 10:03:21;;;;;;;6.85;4.75;;;7.00;96.70;;;;;;4975115;28;20041;-72
2021/12/19 10:06:13;;;;;;;7.70;5.25;;;7.00;96.70;;;;;;4956900;28;20038;-73
2021/12/19 10:08:42;;;;;;;7.53;4.53;;;7.10;96.70;;;;;;4940348;28;20050;-71
2021/12/19 10:11:32;;;;;;;8.13;5.40;;;7.30;96.70;;;;;;4969877;28;20046;-72
2021/12/19 10:14:01;;;;;;;8.27;5.20;;;7.40;96.70;;;;;;4956179;28;20038;-72
2021/12/19 10:16:31;;;;;;;10.20;5.57;;;7.50;96.70;;;;;;4951719;28;20178;-71
2021/12/19 10:19:00;;;;;;;7.20;5.68;;;7.60;96.70;;;;;;4951847;28;20296;-71
2021/12/19 10:21:35;;;;;;;8.90;6.45;;;7.60;96.70;;;;;;4954452;28;20038;-72
2021/12/19 10:24:09;;;;;;;9.07;6.15;;;7.60;96.70;;;;;;4973191;28;20515;-72
2021/12/19 10:26:43;;;;;;;10.15;6.53;;;7.60;96.70;;;;;;4945065;28;20038;-72
2021/12/19 10:29:11;;;;;;;9.80;6.15;;;7.70;96.70;;;;;;4951034;28;20237;-72
2021/12/19 10:31:39;;;;;;;9.43;5.60;;;7.80;96.70;;;;;;4953180;28;20054;-72
2021/12/19 10:34:21;;;;;;;7.82;5.28;;;7.90;96.70;;;;;;4974389;28;20126;-72
2021/12/19 10:36:51;;;;;;;7.32;5.38;;;8.00;96.70;;;;;;4975808;28;20540;-71
2021/12/19 10:39:24;;;;;;;9.48;5.57;;;8.10;96.70;;;;;;4971113;28;20136;-71
2021/12/19 10:42:01;;;;;;;6.82;5.13;;;8.20;96.70;;;;;;4970587;28;20585;-71
2021/12/19 10:47:24;;;;;;;8.30;4.97;;;8.40;96.70;;;;;;4956551;28;20056;-71
2021/12/19 10:49:53;;;;;;;8.45;5.78;;;8.50;96.70;;;;;;4970878;28;20096;-70
2021/12/19 10:52:33;;;;;;;7.40;4.85;;;8.60;96.70;;;;;;4972538;28;20532;-70
2021/12/19 10:55:04;;;;;;;8.30;5.60;;;8.60;96.70;;;;;;4950016;28;20049;-71
2021/12/19 10:57:36;;;;;;;8.43;5.93;;;8.60;96.70;;;;;;4968575;28;20112;-70
2021/12/19 11:00:11;;;;;;;9.50;5.65;;;8.70;96.70;;;;;;4972944;28;20117;-71
2021/12/19 11:02:42;;;;;;;9.27;6.03;;;8.80;96.70;;;;;;4967130;28;20157;-71
2021/12/19 11:05:36;;;;;;;9.18;5.88;;;8.90;96.70;;;;;;4971192;28;20046;-73
2021/12/19 11:08:11;;;;;;;6.32;5.10;;;8.90;96.70;;;;;;4968657;28;20102;-69
2021/12/19 11:10:41;;;;;;;8.45;5.40;;;9.00;96.70;;;;;;4969708;28;20039;-71
2021/12/19 11:13:11;;;;;;;6.32;4.68;;;9.00;96.70;;;;;;4908351;28;20054;-70
2021/12/19 11:15:41;;;;;;;7.65;5.78;;;9.20;96.70;;;;;;4952719;28;20298;-71
2021/12/19 11:18:10;;;;;;;8.23;5.07;;;9.40;96.70;;;;;;4954313;28;20591;-71
2021/12/19 11:20:38;;;;;;;8.65;5.45;;;9.60;96.70;;;;;;4915140;28;20509;-71
2021/12/19 11:23:08;;;;;;;6.82;5.35;;;9.70;96.70;;;;;;4930782;28;20415;-71
2021/12/19 11:25:40;;;;;;;6.90;4.90;;;9.80;96.70;;;;;;4931430;28;20059;-70
2021/12/19 11:28:11;;;;;;;8.23;5.47;;;9.90;96.70;;;;;;4930105;28;20162;-70
2021/12/19 11:30:45;;;;;;;7.20;5.90;;;10.00;96.70;;;;;;4921751;28;20058;-70
2021/12/19 11:33:23;;;;;;;7.82;5.25;;;10.10;96.70;;;;;;4909817;28;20070;-70
2021/12/19 11:35:55;;;;;;;7.97;5.45;;;10.20;96.70;;;;;;4919304;29;20225;-71
2021/12/19 11:38:26;;;;;;;6.85;4.35;;;10.20;96.70;;;;;;4901539;29;20054;-70
2021/12/19 11:40:55;;;;;;;13.65;8.52;;;10.20;96.70;;;;;;4935114;28;20099;-70
2021/12/19 11:43:36;;;;;;;18.52;11.80;;;10.30;96.70;;;;;;4932846;28;20043;-70
2021/12/19 11:46:12;;;;;;;11.25;8.13;;;10.40;96.70;;;;;;4931279;28;20514;-70
2021/12/19 11:48:40;;;;;;;11.45;7.38;;;10.50;96.70;;;;;;4920670;29;20103;-70
2021/12/19 11:51:17;;;;;;;7.70;5.35;;;10.60;96.70;;;;;;4935164;28;20563;-71
2021/12/19 11:53:49;;;;;;;8.85;5.50;;;10.70;96.70;;;;;;4971091;28;20050;-70
2021/12/19 11:56:18;;;;;;;7.75;4.38;;;10.90;96.70;;;;;;4969276;28;20046;-70
2021/12/19 11:58:49;;;;;;;6.88;4.85;;;11.10;96.70;;;;;;4961946;28;20043;-70
2021/12/19 12:01:28;;;;;;;7.43;4.63;;;11.20;96.70;;;;;;4969238;28;20125;-70
2021/12/19 12:03:59;;;;;;;5.82;4.40;;;11.30;96.70;;;;;;4971199;28;20050;-70
2021/12/19 12:06:37;;;;;;;11.95;4.00;;;11.40;96.70;;;;;;4954873;28;20070;-70
2021/12/19 12:09:39;;;;;;;7.18;4.40;;;11.50;96.70;;;;;;4970527;28;20473;-70
2021/12/19 12:12:13;;;;;;;7.15;4.10;;;11.60;96.70;;;;;;4934320;28;20058;-70
2021/12/19 12:14:51;;;;;;;5.45;4.53;;;11.70;96.70;;;;;;4972290;28;20102;-70
2021/12/19 12:17:24;;;;;;;5.68;4.40;;;11.80;96.70;;;;;;4968271;28;20045;-70
2021/12/19 12:19:56;;;;;;;5.15;3.63;;;11.90;96.70;;;;;;4949734;28;20046;-70
2021/12/19 12:22:36;;;;;;;4.85;3.67;;;11.90;96.70;;;;;;4971299;28;20105;-70
2021/12/19 12:25:18;;;;;;;7.20;4.70;;;12.00;96.70;;;;;;4971568;28;20042;-70
2021/12/19 12:27:51;;;;;;;5.85;3.97;;;12.00;96.70;;;;;;4938723;28;20789;-70
2021/12/19 12:30:25;;;;;;;6.28;4.35;;;12.10;96.70;;;;;;4952444;28;20054;-70
2021/12/19 12:32:56;;;;;;;6.07;4.10;;;12.10;96.70;;;;;;4965350;28;20078;-70
2021/12/19 12:35:28;;;;;;;6.55;4.50;;;12.10;96.70;;;;;;4974728;28;20046;-70
2021/12/19 12:37:56;;;;;;;6.72;4.50;;;12.10;96.70;;;;;;4970961;28;20150;-70
2021/12/19 12:40:31;;;;;;;6.47;4.90;;;12.00;96.70;;;;;;4975893;28;20046;-69
2021/12/19 12:43:10;;;;;;;8.77;5.88;;;12.00;96.70;;;;;;4979324;28;20052;-70
2021/12/19 12:46:07;;;;;;;5.30;3.97;;;12.10;96.70;;;;;;4952989;28;20055;-70
2021/12/19 12:48:57;;;;;;;6.90;5.50;;;12.20;96.70;;;;;;4923172;28;20055;-70
2021/12/19 12:51:34;;;;;;;7.63;5.38;;;12.40;96.70;;;;;;4953703;28;20462;-70
2021/12/19 12:54:07;;;;;;;8.93;5.03;;;12.50;96.70;;;;;;4952345;28;20146;-70
2021/12/19 12:56:43;;;;;;;6.72;4.90;;;12.50;96.70;;;;;;4949927;28;20137;-70
2021/12/19 12:59:13;;;;;;;12.98;7.35;;;12.40;96.70;;;;;;4938193;28;20054;-71
2021/12/19 13:01:47;;;;;;;8.38;6.03;;;12.50;96.70;;;;;;4952898;28;20738;-71
2021/12/19 13:04:17;;;;;;;7.30;5.00;;;12.70;96.70;;;;;;4956675;28;20240;-71
2021/12/19 13:06:53;;;;;;;11.40;8.70;;;12.80;96.70;;;;;;4954432;28;20564;-72
2021/12/19 13:09:24;;;;;;;7.30;5.75;;;12.80;96.70;;;;;;4957983;28;20525;-71
2021/12/19 13:12:00;;;;;;;7.35;5.57;;;12.80;96.70;;;;;;4948338;28;20584;-71
2021/12/19 13:14:30;;;;;;;7.30;5.05;;;12.80;96.70;;;;;;4956703;28;20039;-71
2021/12/19 13:17:01;;;;;;;5.90;5.30;;;12.70;96.70;;;;;;4956307;28;20501;-71
2021/12/19 13:19:42;;;;;;;8.30;4.97;;;12.70;96.70;;;;;;4956533;28;20292;-70
2021/12/19 13:22:13;;;;;;;10.13;5.22;;;12.50;96.70;;;;;;4952616;28;20355;-70
2021/12/19 13:24:43;;;;;;;6.32;4.82;;;12.30;96.70;;;;;;4954754;28;20042;-70
2021/12/19 13:27:16;;;;;;;6.13;4.50;;;12.10;96.70;;;;;;4952354;28;20397;-70
2021/12/19 13:30:08;;;;;;;6.78;5.47;;;12.00;96.70;;;;;;4952600;28;20153;-70
2021/12/19 13:32:37;;;;;;;7.05;5.10;;;11.90;96.70;;;;;;4950229;28;20041;-70
2021/12/19 13:35:11;;;;;;;8.18;5.43;;;11.90;96.70;;;;;;4951034;28;20067;-70
2021/12/19 13:37:47;;;;;;;7.10;5.57;;;11.80;96.70;;;;;;4956233;28;20061;-70
2021/12/19 13:40:16;;;;;;;8.10;5.43;;;11.70;96.70;;;;;;4956995;28;20555;-70
2021/12/19 13:42:49;;;;;;;8.07;5.43;;;11.70;96.70;;;;;;4957138;28;20042;-70
2021/12/19 13:45:33;;;;;;;7.22;5.60;;;11.70;96.70;;;;;;4958922;28;20059;-70
2021/12/19 13:48:04;;;;;;;7.47;5.53;;;11.60;96.70;;;;;;4957899;28;20525;-70
2021/12/19 13:50:37;;;;;;;8.05;5.82;;;11.40;96.70;;;;;;4945140;28;20232;-70
2021/12/19 13:53:14;;;;;;;8.85;5.55;;;11.40;96.70;;;;;;4951883;28;20343;-70
2021/12/19 13:55:45;;;;;;;7.88;5.22;;;11.40;96.70;;;;;;4953237;28;20045;-70
2021/12/19 13:58:15;;;;;;;9.50;5.82;;;11.40;96.70;;;;;;4955620;28;20427;-70
2021/12/19 14:00:45;;;;;;;7.53;6.15;;;11.40;96.70;;;;;;4955790;28;20143;-70
2021/12/19 14:03:14;;;;;;;9.45;6.05;;;11.30;96.70;;;;;;4957034;28;20580;-70
2021/12/19 14:05:46;;;;;;;6.93;5.55;;;11.20;96.70;;;;;;4952247;28;20043;-71
2021/12/19 14:08:24;;;;;;;6.60;5.10;;;11.10;96.70;;;;;;4935700;28;20051;-70
2021/12/19 14:11:11;;;;;;;12.13;7.53;;;11.10;96.70;;;;;;4959073;28;20520;-70
2021/12/19 14:13:44;;;;;;;11.80;6.85;;;11.00;96.70;;;;;;4955309;28;20079;-71
2021/12/19 14:16:14;;;;;;;8.15;5.82;;;11.00;96.70;;;;;;4954278;28;20051;-71
2021/12/19 14:18:45;;;;;;;7.63;5.75;;;10.90;96.70;;;;;;4955239;28;20137;-70
2021/12/19 14:21:35;;;;;;;7.30;5.28;;;10.90;96.70;;;;;;4951918;28;20039;-70
2021/12/19 14:24:09;;;;;;;9.40;6.65;;;10.90;96.70;;;;;;4957473;28;20046;-70
2021/12/19 14:26:37;;;;;;;12.23;6.88;;;10.80;96.70;;;;;;4954995;28;20134;-70
2021/12/19 14:29:28;;;;;;;11.15;7.25;;;10.80;96.70;;;;;;4951959;28;20121;-70
2021/12/19 14:31:57;;;;;;;11.27;7.13;;;10.80;96.70;;;;;;4949428;28;20454;-70
2021/12/19 14:34:28;;;;;;;8.88;6.53;;;10.70;96.70;;;;;;4948027;28;20098;-70
2021/12/19 14:37:13;;;;;;;8.75;6.60;;;10.70;96.70;;;;;;4952877;28;20134;-70
2021/12/19 14:40:06;;;;;;;16.33;10.95;;;10.70;96.70;;;;;;4955389;28;20560;-70